Airfield :
LOGIN :

Register | Disclaimer

   EN    FR    IT 

 










Legend :    VFR   Marginal VFR   IFR   Intensive IFR   Very Intensive IFR
Visi :
Ceiling :
>= 8 km
>= 3000ft
5 to 8 km
1000 to 3000 ft
1500m to 5 km
500 to 1000 ft
800 to 1500m
200 to 500 ft
< 800m
< 200 ft
Symbols :   Thunderstorms  Fog  Heavy snow  Heavy precipitations  Wind > 20 kt
SIGMETs :     Misc.  Thunderstorms  Icing  Turbulence  Mountain Waves  Volcanic Ashes






- Airport Elevation : 51 ft
- IATA code : GWT


EDXW - Westerland-Sylt Island

CURRENT METAR :
  • 021520Z 25005KT CAVOK 06/04 Q1019

EXPIRED METARs :
  • 021450Z 26006KT CAVOK 06/04 Q1019
  • 021420Z 26006KT CAVOK 06/03 Q1019
  • 021350Z 27007KT CAVOK 07/03 Q1019
  • 021320Z 27009KT CAVOK 07/03 Q1019
  • 021250Z 28008KT CAVOK 07/03 Q1019

TAF TAF EDXW
Valid from the 02 at 15:00 until the 02 at 18:00 UTC


021400Z 0215/0218 27010KT CAVOK
BECMG 0215/0217 20009KT



MET'MAP, your aeronautical weather chart ! - Copyright ORBIFLY December 2007 - Disclaimer

ORBIFLY MET'MAP TEAM :

Programming & Development : Alexandra Zaïnal
Original concept : Baudouin d'Aumeries
Technical & hardware support : Manuel Goepfert
Assistance : Marc-Olivier Méhu




SOURCES & CREDITS :

   NOAA